KHEZ

Hardy-Anders Field Natchez-Adams County Airport

Natchez, Mississippi, USA
METAR KHEZ 190256Z AUTO 00000KT 10SM CLR M03/M06 A3042 RMK AO2 SLP310 T10281061 50000 FZRANO
Observed Flight Rules
Jan-19 @ 02:56 UTC (50 minutes ago) Visual Flight Rules
Wind Visibility Clouds
Calm 10 miles
  • Clear skies
Temperatures Readings
Current -3°C / 27°F
Dewpoint -6°C / 21°F
Humidity 80%
Altimeter 30.42" Hg
Pressure 1031 hPa
Elevation 83
METAR KHEZ 190256Z AUTO 00000KT 10SM CLR M03/M06 A3042 RMK AO2 SLP310 T10281061 50000 FZRANO
Observed Flight Rules
Jan-19 @ 02:56 UTC
(50 minutes ago)
VFR
Wind Visibility
Calm 10 miles
Clouds
  • Clear skies
Temperature Dewpoint
-3°C / 27°F -6°C / 21°F
Humidity Altimeter Pressure
80% 30.42" Hg 1031 hPa